sensor_id;sensor_type;location;lat;lon;timestamp;temperature;humidity
4209;DHT22;36320;48.860;2.380;2022-10-16T00:01:22;19.00;90.80
4209;DHT22;36320;48.860;2.380;2022-10-16T00:03:48;18.90;90.70
4209;DHT22;36320;48.860;2.380;2022-10-16T00:06:16;18.90;90.70
4209;DHT22;36320;48.860;2.380;2022-10-16T00:08:42;19.00;90.70
4209;DHT22;36320;48.860;2.380;2022-10-16T00:11:14;19.00;90.70
4209;DHT22;36320;48.860;2.380;2022-10-16T00:13:41;19.00;90.70
4209;DHT22;36320;48.860;2.380;2022-10-16T00:16:09;19.10;90.70
4209;DHT22;36320;48.860;2.380;2022-10-16T00:18:35;19.10;90.60
4209;DHT22;36320;48.860;2.380;2022-10-16T00:21:14;19.00;90.50
4209;DHT22;36320;48.860;2.380;2022-10-16T00:23:40;18.90;90.60
4209;DHT22;36320;48.860;2.380;2022-10-16T00:26:09;18.90;90.60
4209;DHT22;36320;48.860;2.380;2022-10-16T00:28:35;18.90;90.60
4209;DHT22;36320;48.860;2.380;2022-10-16T00:31:07;19.00;90.60
4209;DHT22;36320;48.860;2.380;2022-10-16T00:33:33;19.00;90.50
4209;DHT22;36320;48.860;2.380;2022-10-16T00:36:00;18.90;90.50
4209;DHT22;36320;48.860;2.380;2022-10-16T00:38:26;19.00;90.50
4209;DHT22;36320;48.860;2.380;2022-10-16T00:40:52;19.00;90.40
4209;DHT22;36320;48.860;2.380;2022-10-16T00:48:41;18.80;91.00
4209;DHT22;36320;48.860;2.380;2022-10-16T00:51:11;18.80;90.80
4209;DHT22;36320;48.860;2.380;2022-10-16T00:53:36;18.80;90.80
4209;DHT22;36320;48.860;2.380;2022-10-16T00:56:02;18.80;90.90
4209;DHT22;36320;48.860;2.380;2022-10-16T00:58:29;18.80;90.90
4209;DHT22;36320;48.860;2.380;2022-10-16T01:00:54;18.80;91.00
4209;DHT22;36320;48.860;2.380;2022-10-16T01:03:25;18.90;90.90
4209;DHT22;36320;48.860;2.380;2022-10-16T01:06:01;18.90;90.80
4209;DHT22;36320;48.860;2.380;2022-10-16T01:11:24;19.00;90.80
4209;DHT22;36320;48.860;2.380;2022-10-16T01:13:54;19.10;90.80
4209;DHT22;36320;48.860;2.380;2022-10-16T01:16:41;19.10;90.70
4209;DHT22;36320;48.860;2.380;2022-10-16T01:19:12;19.20;90.70
4209;DHT22;36320;48.860;2.380;2022-10-16T01:21:43;19.10;90.70
4209;DHT22;36320;48.860;2.380;2022-10-16T01:27:08;19.10;90.80
4209;DHT22;36320;48.860;2.380;2022-10-16T01:29:56;18.90;90.70
4209;DHT22;36320;48.860;2.380;2022-10-16T01:32:50;19.00;90.80
4209;DHT22;36320;48.860;2.380;2022-10-16T01:35:22;19.00;90.80
4209;DHT22;36320;48.860;2.380;2022-10-16T01:40:26;19.10;90.60
4209;DHT22;36320;48.860;2.380;2022-10-16T01:42:56;18.90;90.60
4209;DHT22;36320;48.860;2.380;2022-10-16T01:45:24;18.90;90.60
4209;DHT22;36320;48.860;2.380;2022-10-16T01:47:51;18.90;90.60
4209;DHT22;36320;48.860;2.380;2022-10-16T01:50:19;18.90;90.60
4209;DHT22;36320;48.860;2.380;2022-10-16T01:52:49;18.90;90.40
4209;DHT22;36320;48.860;2.380;2022-10-16T01:55:21;19.00;90.40
4209;DHT22;36320;48.860;2.380;2022-10-16T01:57:50;19.10;90.30
4209;DHT22;36320;48.860;2.380;2022-10-16T02:00:19;19.00;90.20
4209;DHT22;36320;48.860;2.380;2022-10-16T02:02:49;19.10;90.30
4209;DHT22;36320;48.860;2.380;2022-10-16T02:05:29;19.10;90.20
4209;DHT22;36320;48.860;2.380;2022-10-16T02:07:56;19.20;90.10
4209;DHT22;36320;48.860;2.380;2022-10-16T02:10:22;19.20;90.10
4209;DHT22;36320;48.860;2.380;2022-10-16T02:13:00;19.00;90.00
4209;DHT22;36320;48.860;2.380;2022-10-16T02:15:26;19.10;90.00
4209;DHT22;36320;48.860;2.380;2022-10-16T02:17:51;19.10;90.00
4209;DHT22;36320;48.860;2.380;2022-10-16T02:20:21;18.90;89.80
4209;DHT22;36320;48.860;2.380;2022-10-16T02:22:49;18.90;90.10
4209;DHT22;36320;48.860;2.380;2022-10-16T02:25:20;19.00;90.10
4209;DHT22;36320;48.860;2.380;2022-10-16T02:30:33;19.00;89.90
4209;DHT22;36320;48.860;2.380;2022-10-16T02:33:01;18.90;89.90
4209;DHT22;36320;48.860;2.380;2022-10-16T02:35:28;19.00;89.70
4209;DHT22;36320;48.860;2.380;2022-10-16T02:37:56;18.90;89.50
4209;DHT22;36320;48.860;2.380;2022-10-16T02:40:23;18.90;89.50
4209;DHT22;36320;48.860;2.380;2022-10-16T02:42:51;18.90;90.00
4209;DHT22;36320;48.860;2.380;2022-10-16T02:45:18;18.90;89.00
4209;DHT22;36320;48.860;2.380;2022-10-16T02:47:43;18.80;89.00
4209;DHT22;36320;48.860;2.380;2022-10-16T02:50:09;18.80;88.90
4209;DHT22;36320;48.860;2.380;2022-10-16T02:52:35;18.70;88.90
4209;DHT22;36320;48.860;2.380;2022-10-16T02:55:01;18.70;88.80
4209;DHT22;36320;48.860;2.380;2022-10-16T02:57:27;18.60;88.80
4209;DHT22;36320;48.860;2.380;2022-10-16T02:59:53;18.60;89.00
4209;DHT22;36320;48.860;2.380;2022-10-16T03:02:18;18.60;88.90
4209;DHT22;36320;48.860;2.380;2022-10-16T03:04:46;18.70;89.00
4209;DHT22;36320;48.860;2.380;2022-10-16T03:07:11;18.70;88.70
4209;DHT22;36320;48.860;2.380;2022-10-16T03:09:37;18.70;88.70
4209;DHT22;36320;48.860;2.380;2022-10-16T03:12:03;18.70;88.70
4209;DHT22;36320;48.860;2.380;2022-10-16T03:14:29;18.80;88.50
4209;DHT22;36320;48.860;2.380;2022-10-16T03:16:54;18.70;88.40
4209;DHT22;36320;48.860;2.380;2022-10-16T03:19:20;18.70;88.40
4209;DHT22;36320;48.860;2.380;2022-10-16T03:21:46;18.70;88.50
4209;DHT22;36320;48.860;2.380;2022-10-16T03:24:13;18.70;88.20
4209;DHT22;36320;48.860;2.380;2022-10-16T03:26:38;18.60;88.10
4209;DHT22;36320;48.860;2.380;2022-10-16T03:29:04;18.70;88.20
4209;DHT22;36320;48.860;2.380;2022-10-16T03:31:30;18.70;88.00
4209;DHT22;36320;48.860;2.380;2022-10-16T03:33:56;18.70;87.80
4209;DHT22;36320;48.860;2.380;2022-10-16T03:36:22;18.60;87.80
4209;DHT22;36320;48.860;2.380;2022-10-16T03:38:48;18.40;87.50
4209;DHT22;36320;48.860;2.380;2022-10-16T03:41:13;18.60;87.70
4209;DHT22;36320;48.860;2.380;2022-10-16T03:43:39;18.60;87.70
4209;DHT22;36320;48.860;2.380;2022-10-16T03:46:05;18.70;87.80
4209;DHT22;36320;48.860;2.380;2022-10-16T03:48:30;18.60;87.60
4209;DHT22;36320;48.860;2.380;2022-10-16T03:50:57;18.70;87.60
4209;DHT22;36320;48.860;2.380;2022-10-16T03:53:23;18.70;87.40
4209;DHT22;36320;48.860;2.380;2022-10-16T03:55:50;18.80;87.40
4209;DHT22;36320;48.860;2.380;2022-10-16T03:58:16;18.70;87.30
4209;DHT22;36320;48.860;2.380;2022-10-16T04:00:43;18.70;87.60
4209;DHT22;36320;48.860;2.380;2022-10-16T04:03:09;18.80;87.50
4209;DHT22;36320;48.860;2.380;2022-10-16T04:05:35;18.80;87.40
4209;DHT22;36320;48.860;2.380;2022-10-16T04:08:01;18.70;87.40
4209;DHT22;36320;48.860;2.380;2022-10-16T04:10:26;18.70;87.50
4209;DHT22;36320;48.860;2.380;2022-10-16T04:12:52;18.80;87.20
4209;DHT22;36320;48.860;2.380;2022-10-16T04:15:21;18.70;87.10
4209;DHT22;36320;48.860;2.380;2022-10-16T04:17:47;18.70;87.20
4209;DHT22;36320;48.860;2.380;2022-10-16T04:20:13;18.60;87.50
4209;DHT22;36320;48.860;2.380;2022-10-16T04:22:39;18.70;87.40
4209;DHT22;36320;48.860;2.380;2022-10-16T04:25:06;18.60;87.30
4209;DHT22;36320;48.860;2.380;2022-10-16T04:27:32;18.50;87.50
4209;DHT22;36320;48.860;2.380;2022-10-16T04:29:59;18.50;87.80
4209;DHT22;36320;48.860;2.380;2022-10-16T04:32:25;18.60;87.70
4209;DHT22;36320;48.860;2.380;2022-10-16T04:34:50;18.60;87.60
4209;DHT22;36320;48.860;2.380;2022-10-16T04:37:16;18.50;87.80
4209;DHT22;36320;48.860;2.380;2022-10-16T04:39:41;18.50;87.80
4209;DHT22;36320;48.860;2.380;2022-10-16T04:42:07;18.40;88.10
4209;DHT22;36320;48.860;2.380;2022-10-16T04:44:33;18.50;88.10
4209;DHT22;36320;48.860;2.380;2022-10-16T04:46:58;18.50;87.80
4209;DHT22;36320;48.860;2.380;2022-10-16T04:49:24;18.60;87.90
4209;DHT22;36320;48.860;2.380;2022-10-16T04:51:50;18.70;87.70
4209;DHT22;36320;48.860;2.380;2022-10-16T04:54:15;18.70;87.60
4209;DHT22;36320;48.860;2.380;2022-10-16T04:56:41;18.70;87.70
4209;DHT22;36320;48.860;2.380;2022-10-16T04:59:16;18.70;87.60
4209;DHT22;36320;48.860;2.380;2022-10-16T05:01:42;18.60;87.50
4209;DHT22;36320;48.860;2.380;2022-10-16T05:04:11;18.70;87.30
4209;DHT22;36320;48.860;2.380;2022-10-16T05:06:38;18.80;87.20
4209;DHT22;36320;48.860;2.380;2022-10-16T05:09:06;18.80;87.50
4209;DHT22;36320;48.860;2.380;2022-10-16T05:11:32;18.80;87.40
4209;DHT22;36320;48.860;2.380;2022-10-16T05:13:58;18.90;87.20
4209;DHT22;36320;48.860;2.380;2022-10-16T05:16:26;18.90;87.80
4209;DHT22;36320;48.860;2.380;2022-10-16T05:18:52;18.90;87.10
4209;DHT22;36320;48.860;2.380;2022-10-16T05:21:19;18.80;86.90
4209;DHT22;36320;48.860;2.380;2022-10-16T05:23:45;19.00;87.10
4209;DHT22;36320;48.860;2.380;2022-10-16T05:26:10;19.00;87.20
4209;DHT22;36320;48.860;2.380;2022-10-16T05:28:36;19.00;87.20
4209;DHT22;36320;48.860;2.380;2022-10-16T05:31:06;19.00;87.40
4209;DHT22;36320;48.860;2.380;2022-10-16T05:33:32;18.30;86.70
4209;DHT22;36320;48.860;2.380;2022-10-16T05:36:03;19.00;87.30
4209;DHT22;36320;48.860;2.380;2022-10-16T05:38:29;18.90;87.10
4209;DHT22;36320;48.860;2.380;2022-10-16T05:40:55;19.00;87.10
4209;DHT22;36320;48.860;2.380;2022-10-16T05:43:21;19.10;87.10
4209;DHT22;36320;48.860;2.380;2022-10-16T05:45:58;19.00;86.70
4209;DHT22;36320;48.860;2.380;2022-10-16T05:48:24;19.00;86.60
4209;DHT22;36320;48.860;2.380;2022-10-16T05:51:06;19.10;86.70
4209;DHT22;36320;48.860;2.380;2022-10-16T05:53:33;19.10;86.60
4209;DHT22;36320;48.860;2.380;2022-10-16T05:56:00;19.10;86.60
4209;DHT22;36320;48.860;2.380;2022-10-16T05:58:33;18.90;86.80
4209;DHT22;36320;48.860;2.380;2022-10-16T06:01:00;18.90;86.80
4209;DHT22;36320;48.860;2.380;2022-10-16T06:03:26;19.00;86.90
4209;DHT22;36320;48.860;2.380;2022-10-16T06:05:52;19.00;86.70
4209;DHT22;36320;48.860;2.380;2022-10-16T06:08:18;18.90;86.80
4209;DHT22;36320;48.860;2.380;2022-10-16T06:10:45;19.60;88.20
4209;DHT22;36320;48.860;2.380;2022-10-16T06:13:12;18.70;87.30
4209;DHT22;36320;48.860;2.380;2022-10-16T06:15:39;18.80;87.40
4209;DHT22;36320;48.860;2.380;2022-10-16T06:18:07;18.80;87.40
4209;DHT22;36320;48.860;2.380;2022-10-16T06:20:33;18.80;87.50
4209;DHT22;36320;48.860;2.380;2022-10-16T06:23:00;18.80;87.60
4209;DHT22;36320;48.860;2.380;2022-10-16T06:25:25;19.80;88.80
4209;DHT22;36320;48.860;2.380;2022-10-16T06:27:51;18.70;87.80
4209;DHT22;36320;48.860;2.380;2022-10-16T06:30:17;18.70;88.10
4209;DHT22;36320;48.860;2.380;2022-10-16T06:32:42;18.70;88.20
4209;DHT22;36320;48.860;2.380;2022-10-16T06:35:08;18.70;88.20
4209;DHT22;36320;48.860;2.380;2022-10-16T06:37:34;18.70;88.40
4209;DHT22;36320;48.860;2.380;2022-10-16T06:40:01;18.70;88.50
4209;DHT22;36320;48.860;2.380;2022-10-16T06:42:29;18.70;88.60
4209;DHT22;36320;48.860;2.380;2022-10-16T06:44:55;18.70;88.70
4209;DHT22;36320;48.860;2.380;2022-10-16T06:47:21;18.70;88.70
4209;DHT22;36320;48.860;2.380;2022-10-16T06:49:46;18.70;88.80
4209;DHT22;36320;48.860;2.380;2022-10-16T06:52:12;18.70;89.00
4209;DHT22;36320;48.860;2.380;2022-10-16T06:54:38;18.60;89.20
4209;DHT22;36320;48.860;2.380;2022-10-16T06:57:05;18.60;89.40
4209;DHT22;36320;48.860;2.380;2022-10-16T06:59:30;18.60;89.30
4209;DHT22;36320;48.860;2.380;2022-10-16T07:02:04;18.60;89.20
4209;DHT22;36320;48.860;2.380;2022-10-16T07:04:29;18.70;89.00
4209;DHT22;36320;48.860;2.380;2022-10-16T07:06:56;18.80;88.70
4209;DHT22;36320;48.860;2.380;2022-10-16T07:09:22;18.80;88.60
4209;DHT22;36320;48.860;2.380;2022-10-16T07:11:48;18.90;88.70
4209;DHT22;36320;48.860;2.380;2022-10-16T07:14:20;18.90;88.60
4209;DHT22;36320;48.860;2.380;2022-10-16T07:16:46;18.90;88.50
4209;DHT22;36320;48.860;2.380;2022-10-16T07:19:13;18.90;88.70
4209;DHT22;36320;48.860;2.380;2022-10-16T07:21:41;18.90;88.60
4209;DHT22;36320;48.860;2.380;2022-10-16T07:24:11;19.00;88.50
4209;DHT22;36320;48.860;2.380;2022-10-16T07:26:38;19.10;88.40
4209;DHT22;36320;48.860;2.380;2022-10-16T07:29:06;19.10;88.30
4209;DHT22;36320;48.860;2.380;2022-10-16T07:31:35;18.90;89.30
4209;DHT22;36320;48.860;2.380;2022-10-16T07:34:02;18.50;88.60
4209;DHT22;36320;48.860;2.380;2022-10-16T07:36:30;18.90;89.00
4209;DHT22;36320;48.860;2.380;2022-10-16T07:38:55;18.90;89.00
4209;DHT22;36320;48.860;2.380;2022-10-16T07:41:21;19.00;89.10
4209;DHT22;36320;48.860;2.380;2022-10-16T07:43:49;19.10;89.20
4209;DHT22;36320;48.860;2.380;2022-10-16T07:46:16;19.00;89.30
4209;DHT22;36320;48.860;2.380;2022-10-16T07:48:44;19.00;89.50
4209;DHT22;36320;48.860;2.380;2022-10-16T07:51:14;19.10;89.50
4209;DHT22;36320;48.860;2.380;2022-10-16T07:53:40;19.20;89.40
4209;DHT22;36320;48.860;2.380;2022-10-16T07:56:09;19.40;89.30
4209;DHT22;36320;48.860;2.380;2022-10-16T07:58:36;19.50;89.00
4209;DHT22;36320;48.860;2.380;2022-10-16T08:01:14;19.60;88.70
4209;DHT22;36320;48.860;2.380;2022-10-16T08:03:48;19.80;88.40
4209;DHT22;36320;48.860;2.380;2022-10-16T08:06:15;19.90;88.00
4209;DHT22;36320;48.860;2.380;2022-10-16T08:08:43;20.10;87.50
4209;DHT22;36320;48.860;2.380;2022-10-16T08:11:09;20.00;86.80
4209;DHT22;36320;48.860;2.380;2022-10-16T08:13:34;20.10;86.50
4209;DHT22;36320;48.860;2.380;2022-10-16T08:16:00;20.10;86.30
4209;DHT22;36320;48.860;2.380;2022-10-16T08:18:27;20.20;86.30
4209;DHT22;36320;48.860;2.380;2022-10-16T08:20:59;20.30;85.90
4209;DHT22;36320;48.860;2.380;2022-10-16T08:23:28;20.30;85.50
4209;DHT22;36320;48.860;2.380;2022-10-16T08:25:54;20.30;85.20
4209;DHT22;36320;48.860;2.380;2022-10-16T08:28:21;20.40;85.00
4209;DHT22;36320;48.860;2.380;2022-10-16T08:30:47;20.40;84.60
4209;DHT22;36320;48.860;2.380;2022-10-16T08:33:17;20.50;84.40
4209;DHT22;36320;48.860;2.380;2022-10-16T08:35:51;20.60;84.10
4209;DHT22;36320;48.860;2.380;2022-10-16T08:38:17;20.60;83.80
4209;DHT22;36320;48.860;2.380;2022-10-16T08:40:43;20.60;83.50
4209;DHT22;36320;48.860;2.380;2022-10-16T08:48:47;20.50;83.70
4209;DHT22;36320;48.860;2.380;2022-10-16T08:53:56;20.30;84.10
4209;DHT22;36320;48.860;2.380;2022-10-16T08:56:24;20.30;84.10
4209;DHT22;36320;48.860;2.380;2022-10-16T08:58:55;20.30;84.40
4209;DHT22;36320;48.860;2.380;2022-10-16T09:01:24;20.20;84.70
4209;DHT22;36320;48.860;2.380;2022-10-16T09:06:45;20.10;85.00
4209;DHT22;36320;48.860;2.380;2022-10-16T09:17:46;20.10;85.40
4209;DHT22;36320;48.860;2.380;2022-10-16T09:23:29;20.20;85.50
4209;DHT22;36320;48.860;2.380;2022-10-16T09:25:58;20.20;85.30
4209;DHT22;36320;48.860;2.380;2022-10-16T09:28:24;20.20;85.10
4209;DHT22;36320;48.860;2.380;2022-10-16T09:30:50;20.20;85.10
4209;DHT22;36320;48.860;2.380;2022-10-16T09:33:18;20.20;85.00
4209;DHT22;36320;48.860;2.380;2022-10-16T09:35:52;20.30;84.90
4209;DHT22;36320;48.860;2.380;2022-10-16T09:38:34;20.50;84.40
4209;DHT22;36320;48.860;2.380;2022-10-16T09:41:19;20.80;83.80
4209;DHT22;36320;48.860;2.380;2022-10-16T09:43:56;20.90;83.00
4209;DHT22;36320;48.860;2.380;2022-10-16T09:46:34;21.10;82.20
4209;DHT22;36320;48.860;2.380;2022-10-16T09:49:18;21.40;81.50
4209;DHT22;36320;48.860;2.380;2022-10-16T09:51:45;21.10;81.00
4209;DHT22;36320;48.860;2.380;2022-10-16T09:54:18;21.10;81.30
4209;DHT22;36320;48.860;2.380;2022-10-16T09:56:44;21.40;81.00
4209;DHT22;36320;48.860;2.380;2022-10-16T09:59:22;21.50;80.50
4209;DHT22;36320;48.860;2.380;2022-10-16T10:01:54;20.60;79.10
4209;DHT22;36320;48.860;2.380;2022-10-16T10:04:23;21.70;79.90
4209;DHT22;36320;48.860;2.380;2022-10-16T10:06:51;21.60;79.60
4209;DHT22;36320;48.860;2.380;2022-10-16T10:09:24;21.60;79.30
4209;DHT22;36320;48.860;2.380;2022-10-16T10:11:54;21.60;79.00
4209;DHT22;36320;48.860;2.380;2022-10-16T10:14:24;21.40;79.20
4209;DHT22;36320;48.860;2.380;2022-10-16T10:16:52;21.50;79.30
4209;DHT22;36320;48.860;2.380;2022-10-16T10:19:27;21.40;79.30
4209;DHT22;36320;48.860;2.380;2022-10-16T10:21:53;21.50;79.50
4209;DHT22;36320;48.860;2.380;2022-10-16T10:24:19;21.50;79.20
4209;DHT22;36320;48.860;2.380;2022-10-16T10:29:56;21.40;78.90
4209;DHT22;36320;48.860;2.380;2022-10-16T10:35:44;21.90;78.50
4209;DHT22;36320;48.860;2.380;2022-10-16T10:38:37;22.00;78.30
4209;DHT22;36320;48.860;2.380;2022-10-16T10:55:20;22.40;77.40
4209;DHT22;36320;48.860;2.380;2022-10-16T11:04:05;22.40;77.00
4209;DHT22;36320;48.860;2.380;2022-10-16T11:06:48;22.20;77.50
4209;DHT22;36320;48.860;2.380;2022-10-16T11:09:22;22.10;77.80
4209;DHT22;36320;48.860;2.380;2022-10-16T11:11:54;22.10;78.00
4209;DHT22;36320;48.860;2.380;2022-10-16T11:14:34;22.00;78.40
4209;DHT22;36320;48.860;2.380;2022-10-16T11:17:22;22.10;78.50
4209;DHT22;36320;48.860;2.380;2022-10-16T11:23:10;22.50;78.40
4209;DHT22;36320;48.860;2.380;2022-10-16T11:25:39;22.60;78.00
4209;DHT22;36320;48.860;2.380;2022-10-16T11:36:08;22.60;77.80
4209;DHT22;36320;48.860;2.380;2022-10-16T11:44:52;22.60;77.70
4209;DHT22;36320;48.860;2.380;2022-10-16T11:48:24;22.90;77.50
4209;DHT22;36320;48.860;2.380;2022-10-16T11:53:13;23.10;76.70
4209;DHT22;36320;48.860;2.380;2022-10-16T11:55:43;23.10;76.50
4209;DHT22;36320;48.860;2.380;2022-10-16T12:00:47;23.10;76.40
4209;DHT22;36320;48.860;2.380;2022-10-16T12:06:15;22.70;76.70
4209;DHT22;36320;48.860;2.380;2022-10-16T12:08:46;22.70;76.90
4209;DHT22;36320;48.860;2.380;2022-10-16T12:11:37;22.80;76.80
4209;DHT22;36320;48.860;2.380;2022-10-16T12:16:58;22.80;76.80
4209;DHT22;36320;48.860;2.380;2022-10-16T12:19:29;22.60;76.80
4209;DHT22;36320;48.860;2.380;2022-10-16T12:22:01;22.30;77.50
4209;DHT22;36320;48.860;2.380;2022-10-16T12:24:36;22.20;77.90
4209;DHT22;36320;48.860;2.380;2022-10-16T12:27:05;22.00;78.50
4209;DHT22;36320;48.860;2.380;2022-10-16T12:29:38;22.30;78.70
4209;DHT22;36320;48.860;2.380;2022-10-16T12:32:22;22.30;78.50
4209;DHT22;36320;48.860;2.380;2022-10-16T12:34:49;22.60;78.40
4209;DHT22;36320;48.860;2.380;2022-10-16T12:37:24;22.80;77.90
4209;DHT22;36320;48.860;2.380;2022-10-16T12:39:52;22.90;77.70
4209;DHT22;36320;48.860;2.380;2022-10-16T12:44:54;23.30;77.50
4209;DHT22;36320;48.860;2.380;2022-10-16T12:49:56;23.50;77.10
4209;DHT22;36320;48.860;2.380;2022-10-16T12:52:38;23.60;77.10
4209;DHT22;36320;48.860;2.380;2022-10-16T12:55:09;23.50;77.00
4209;DHT22;36320;48.860;2.380;2022-10-16T13:00:56;23.40;77.50
4209;DHT22;36320;48.860;2.380;2022-10-16T13:12:15;23.60;77.80
4209;DHT22;36320;48.860;2.380;2022-10-16T13:17:37;23.60;77.20
4209;DHT22;36320;48.860;2.380;2022-10-16T13:22:44;23.50;78.50
4209;DHT22;36320;48.860;2.380;2022-10-16T13:28:08;24.60;76.40
4209;DHT22;36320;48.860;2.380;2022-10-16T13:30:43;24.50;76.30
4209;DHT22;36320;48.860;2.380;2022-10-16T13:35:51;24.70;75.90
4209;DHT22;36320;48.860;2.380;2022-10-16T13:38:20;24.60;76.20
4209;DHT22;36320;48.860;2.380;2022-10-16T13:48:37;23.50;78.40
4209;DHT22;36320;48.860;2.380;2022-10-16T13:51:15;23.60;78.60
4209;DHT22;36320;48.860;2.380;2022-10-16T13:53:41;23.60;78.70
4209;DHT22;36320;48.860;2.380;2022-10-16T13:56:16;23.40;79.20
4209;DHT22;36320;48.860;2.380;2022-10-16T13:58:43;23.60;79.40
4209;DHT22;36320;48.860;2.380;2022-10-16T14:01:18;23.50;79.10
4209;DHT22;36320;48.860;2.380;2022-10-16T14:03:47;23.60;79.30
4209;DHT22;36320;48.860;2.380;2022-10-16T14:06:17;23.50;79.30
4209;DHT22;36320;48.860;2.380;2022-10-16T14:08:47;23.60;79.40
4209;DHT22;36320;48.860;2.380;2022-10-16T14:11:22;23.60;79.30
4209;DHT22;36320;48.860;2.380;2022-10-16T14:13:49;23.70;79.20
4209;DHT22;36320;48.860;2.380;2022-10-16T14:16:23;23.70;79.10
4209;DHT22;36320;48.860;2.380;2022-10-16T14:19:02;23.70;79.10
4209;DHT22;36320;48.860;2.380;2022-10-16T14:21:29;23.70;79.30
4209;DHT22;36320;48.860;2.380;2022-10-16T14:23:55;23.70;79.10
4209;DHT22;36320;48.860;2.380;2022-10-16T14:26:27;23.70;79.10
4209;DHT22;36320;48.860;2.380;2022-10-16T14:29:15;23.80;79.20
4209;DHT22;36320;48.860;2.380;2022-10-16T14:31:57;24.10;78.90
4209;DHT22;36320;48.860;2.380;2022-10-16T14:36:56;24.00;78.70
4209;DHT22;36320;48.860;2.380;2022-10-16T14:39:23;24.00;78.90
4209;DHT22;36320;48.860;2.380;2022-10-16T14:41:51;24.10;78.90
4209;DHT22;36320;48.860;2.380;2022-10-16T14:44:18;24.10;78.90
4209;DHT22;36320;48.860;2.380;2022-10-16T14:46:44;24.10;79.00
4209;DHT22;36320;48.860;2.380;2022-10-16T14:51:40;23.90;79.10
4209;DHT22;36320;48.860;2.380;2022-10-16T14:54:09;23.90;79.40
4209;DHT22;36320;48.860;2.380;2022-10-16T14:56:48;23.70;79.60
4209;DHT22;36320;48.860;2.380;2022-10-16T14:59:19;23.50;80.10
4209;DHT22;36320;48.860;2.380;2022-10-16T15:01:48;23.40;80.40
4209;DHT22;36320;48.860;2.380;2022-10-16T15:04:15;23.50;80.80
4209;DHT22;36320;48.860;2.380;2022-10-16T15:06:42;23.30;80.90
4209;DHT22;36320;48.860;2.380;2022-10-16T15:09:08;23.20;81.50
4209;DHT22;36320;48.860;2.380;2022-10-16T15:11:34;23.20;81.60
4209;DHT22;36320;48.860;2.380;2022-10-16T15:14:00;23.20;81.70
4209;DHT22;36320;48.860;2.380;2022-10-16T15:16:27;23.30;81.70
4209;DHT22;36320;48.860;2.380;2022-10-16T15:18:52;23.40;81.80
4209;DHT22;36320;48.860;2.380;2022-10-16T15:21:30;23.50;81.60
4209;DHT22;36320;48.860;2.380;2022-10-16T15:23:58;23.50;81.50
4209;DHT22;36320;48.860;2.380;2022-10-16T15:26:25;23.50;81.30
4209;DHT22;36320;48.860;2.380;2022-10-16T15:28:51;23.50;81.50
4209;DHT22;36320;48.860;2.380;2022-10-16T15:31:18;23.40;81.70
4209;DHT22;36320;48.860;2.380;2022-10-16T15:33:45;23.50;81.80
4209;DHT22;36320;48.860;2.380;2022-10-16T15:36:16;23.50;82.00
4209;DHT22;36320;48.860;2.380;2022-10-16T15:38:42;23.50;82.40
4209;DHT22;36320;48.860;2.380;2022-10-16T15:41:09;23.30;82.30
4209;DHT22;36320;48.860;2.380;2022-10-16T15:43:35;23.70;83.40
4209;DHT22;36320;48.860;2.380;2022-10-16T15:46:06;23.00;83.00
4209;DHT22;36320;48.860;2.380;2022-10-16T15:48:32;23.20;83.40
4209;DHT22;36320;48.860;2.380;2022-10-16T15:51:00;23.10;83.60
4209;DHT22;36320;48.860;2.380;2022-10-16T15:53:31;23.20;83.90
4209;DHT22;36320;48.860;2.380;2022-10-16T15:55:56;23.10;83.90
4209;DHT22;36320;48.860;2.380;2022-10-16T15:58:22;23.00;84.20
4209;DHT22;36320;48.860;2.380;2022-10-16T16:00:58;23.00;84.40
4209;DHT22;36320;48.860;2.380;2022-10-16T16:03:27;23.00;84.70
4209;DHT22;36320;48.860;2.380;2022-10-16T16:05:54;23.10;84.90
4209;DHT22;36320;48.860;2.380;2022-10-16T16:08:20;23.10;84.70
4209;DHT22;36320;48.860;2.380;2022-10-16T16:10:46;22.90;84.70
4209;DHT22;36320;48.860;2.380;2022-10-16T16:13:22;23.10;85.00
4209;DHT22;36320;48.860;2.380;2022-10-16T16:15:47;23.20;85.30
4209;DHT22;36320;48.860;2.380;2022-10-16T16:18:14;23.30;85.20
4209;DHT22;36320;48.860;2.380;2022-10-16T16:20:40;23.30;84.70
4209;DHT22;36320;48.860;2.380;2022-10-16T16:23:05;23.30;84.60
4209;DHT22;36320;48.860;2.380;2022-10-16T16:25:31;23.20;84.60
4209;DHT22;36320;48.860;2.380;2022-10-16T16:27:57;23.00;84.90
4209;DHT22;36320;48.860;2.380;2022-10-16T16:30:22;23.00;85.20
4209;DHT22;36320;48.860;2.380;2022-10-16T16:32:48;22.90;85.30
4209;DHT22;36320;48.860;2.380;2022-10-16T16:35:14;22.90;85.60
4209;DHT22;36320;48.860;2.380;2022-10-16T16:37:40;22.80;85.80
4209;DHT22;36320;48.860;2.380;2022-10-16T16:40:06;22.80;85.90
4209;DHT22;36320;48.860;2.380;2022-10-16T16:42:31;22.70;86.00
4209;DHT22;36320;48.860;2.380;2022-10-16T16:44:57;22.70;86.20
4209;DHT22;36320;48.860;2.380;2022-10-16T16:47:23;22.60;86.40
4209;DHT22;36320;48.860;2.380;2022-10-16T16:49:50;22.60;86.70
4209;DHT22;36320;48.860;2.380;2022-10-16T16:52:17;22.60;87.00
4209;DHT22;36320;48.860;2.380;2022-10-16T16:54:43;22.50;87.10
4209;DHT22;36320;48.860;2.380;2022-10-16T16:57:11;22.50;87.30
4209;DHT22;36320;48.860;2.380;2022-10-16T16:59:39;22.50;87.50
4209;DHT22;36320;48.860;2.380;2022-10-16T17:02:05;22.40;87.80
4209;DHT22;36320;48.860;2.380;2022-10-16T17:04:32;22.30;88.50
4209;DHT22;36320;48.860;2.380;2022-10-16T17:06:58;22.40;88.50
4209;DHT22;36320;48.860;2.380;2022-10-16T17:09:24;22.40;88.60
4209;DHT22;36320;48.860;2.380;2022-10-16T17:11:49;22.40;88.80
4209;DHT22;36320;48.860;2.380;2022-10-16T17:14:15;22.20;89.00
4209;DHT22;36320;48.860;2.380;2022-10-16T17:16:41;22.20;89.40
4209;DHT22;36320;48.860;2.380;2022-10-16T17:19:17;22.20;89.30
